Omaha, NE (68138)

9:54 PM CDT on September 19, 2014 (GMT -0500)
Werner Ent. Omaha | Change Station
CLOSE
Current Station
Personal Weather Station
Location: Omaha, NE
Elevation: 1168 ft
Nearby Weather Stations

Elev 1168 ft 41.16 °N, 96.13 °W | Updated 15 seconds ago

Clear
Clear
75.4 °F
Feels Like 76 °F
N
4.0
Wind Variable Wind from North
Gusts 15.0 mph

Today
High -- | Low -- °F
--% Chance of Precip.
Yesterday
High -- | Low -- °F
Precip. -- in
7:09 AM 7:26 PM
Waning Crescent, 15% visible
Pressure 29.82 in
Visibility 10.0 miles
Clouds Clear
Heat Index 76 °F
Dew Point 69 °F
Humidity 81%
Rainfall 0.00 in
Snow Depth Not available.
UV 0.0 out of 12
Pollen 6.70 out of 12
Ozone Good
PM2.5 Moderate
Flu Activity Not available.
METAR KMLE 200235Z AUTO 16011G15KT 10SM CLR 25/21 A2982 RMK AO2 T02510210

More Conditions Fewer Conditions

Pressure 29.82 in
Visibility 10.0 miles
Clouds Clear
Heat Index 76 °F
Dew Point 69 °F
Humidity 81%
Rainfall 0.00 in
Snow Depth Not available.
UV 0.0 out of 12
Pollen 6.70 out of 12
Ozone Good
PM2.5 Moderate
Flu Activity Not available.
METAR KMLE 200235Z AUTO 16011G15KT 10SM CLR 25/21 A2982 RMK AO2 T02510210

More Conditions Fewer Conditions

10-Day Weather Forecast

Almanac

Astronomy

Sep. 19, 2014 Rise Set
Actual Time 7:09 AM CDT 7:26 PM CDT
Civil Twilight 6:41 AM CDT 7:54 PM CDT
Nautical Twilight 6:09 AM CDT 8:26 PM CDT
Astronomical Twilight 5:35 AM CDT 8:59 PM CDT
Moon 2:53 AM CDT (9/19) 4:57 PM CDT (9/19)
Length of Visible Light 13h 12m
Length of Day
12h 17m
Tomorrow will be 2m 44s shorter.
Waning Crescent, 15% of the Moon is Illuminated
Today
Waning Crescent
Sep 24
New
Oct 1
First Quarter
Oct 8
Full
Oct 15
Last Quarter

Today's Extremes

State Highs State Lows

Community

WunderPhotos

Upload Photos

1,754,768 photos uploaded!

WunderBlogs® & News

Nearby

Air Quality

  Air Quality AQ Index Pollutant
Yesterday Good
PM2.5
Yesterday Good
OZONE
Current Moderate
PM2.5
Current Good
OZONE
Friday Good
PM2.5
Friday Good
OZONE
Friday Good
CO
Saturday Good
PM2.5
Saturday Good
OZONE
Saturday Good
CO
Sunday Good
PM2.5
Sunday Good
OZONE
Sunday Good
CO

Snow Depth

Station Depth Elevation
No new snow has been reported.

Earthquake Activity

City Distance Mag. Time & Date
No recent earthquake activity has been reported nearby.
Minimum magnitude displayed is 2.5.

Coastal Water Temperatures

Place Temperature
No Stations Reporting

Nearby Weather Stations